createdAt,value
2022-08-01T00:00:50.366Z,39.00
2022-08-01T00:03:18.000Z,15.37
2022-08-01T00:05:46.339Z,17.50
2022-08-01T00:08:13.927Z,16.03
2022-08-01T00:10:41.854Z,18.47
2022-08-01T00:13:10.605Z,16.90
2022-08-01T00:15:38.419Z,16.60
2022-08-01T00:18:07.567Z,15.53
2022-08-01T00:20:35.150Z,15.70
2022-08-01T00:23:04.565Z,32.37
2022-08-01T00:25:34.082Z,17.60
2022-08-01T00:28:02.364Z,19.33
2022-08-01T00:30:32.468Z,18.00
2022-08-01T00:33:00.071Z,15.20
2022-08-01T00:35:29.004Z,17.60
2022-08-01T00:37:56.862Z,17.97
2022-08-01T00:40:24.622Z,15.10
2022-08-01T00:42:52.604Z,15.97
2022-08-01T00:45:20.339Z,17.73
2022-08-01T00:47:48.015Z,15.87
2022-08-01T00:50:22.930Z,14.53
2022-08-01T00:52:54.033Z,15.97
2022-08-01T00:55:22.148Z,15.20
2022-08-01T00:58:03.884Z,16.50
2022-08-01T01:00:34.831Z,13.20
2022-08-01T01:03:20.331Z,18.57
2022-08-01T01:05:56.680Z,16.97
2022-08-01T01:08:31.339Z,15.83
2022-08-01T01:11:03.459Z,14.93
2022-08-01T01:13:50.817Z,16.47
2022-08-01T01:16:20.921Z,19.90
2022-08-01T01:18:50.068Z,15.50
2022-08-01T01:21:37.538Z,17.37
2022-08-01T01:24:15.392Z,15.20
2022-08-01T01:26:49.921Z,17.90
2022-08-01T01:29:23.440Z,14.20
2022-08-01T01:31:54.083Z,34.03
2022-08-01T01:34:23.407Z,14.63
2022-08-01T01:36:53.760Z,14.00
2022-08-01T01:39:22.856Z,20.93
2022-08-01T01:41:51.160Z,17.33
2022-08-01T01:44:20.712Z,16.23
2022-08-01T01:46:49.549Z,27.37
2022-08-01T01:49:18.480Z,15.83
2022-08-01T01:51:53.278Z,16.50
2022-08-01T01:54:33.296Z,13.77
2022-08-01T01:57:01.800Z,13.93
2022-08-01T01:59:32.698Z,20.73
2022-08-01T02:02:06.126Z,16.60
2022-08-01T02:04:35.086Z,672.83
2022-08-01T02:07:04.260Z,19.30
2022-08-01T02:09:32.844Z,134.53
2022-08-01T02:12:08.782Z,673.03
2022-08-01T02:14:40.891Z,14.23
2022-08-01T02:17:08.554Z,16.07
2022-08-01T02:19:38.010Z,16.97
2022-08-01T02:22:10.118Z,18.63
2022-08-01T02:24:41.622Z,672.67
2022-08-01T02:27:11.883Z,673.07
2022-08-01T02:29:43.887Z,142.83
2022-08-01T02:32:15.039Z,673.80
2022-08-01T02:34:43.622Z,673.80
2022-08-01T02:37:12.325Z,139.37
2022-08-01T02:39:40.443Z,21.67
2022-08-01T02:42:10.400Z,399.47
2022-08-01T02:44:41.399Z,152.67
2022-08-01T02:47:11.145Z,19.20
2022-08-01T02:49:42.038Z,18.13
2022-08-01T02:52:13.480Z,17.07
2022-08-01T02:54:42.498Z,22.40
2022-08-01T02:57:13.738Z,97.13
2022-08-01T02:59:43.687Z,152.33
2022-08-01T03:02:14.038Z,268.07
2022-08-01T03:04:42.591Z,165.57
2022-08-01T03:07:11.759Z,100.03
2022-08-01T03:09:41.121Z,279.53
2022-08-01T03:12:11.727Z,96.67
2022-08-01T03:14:43.195Z,99.70
2022-08-01T03:17:12.371Z,101.17
2022-08-01T03:19:40.536Z,297.37
2022-08-01T03:22:09.388Z,16.80
2022-08-01T03:24:38.237Z,116.17
2022-08-01T03:27:06.632Z,325.70
2022-08-01T03:29:34.990Z,111.07
2022-08-01T03:32:04.383Z,16.87
2022-08-01T03:34:32.459Z,118.50
2022-08-01T03:37:04.627Z,335.13
2022-08-01T03:39:34.184Z,127.33
2022-08-01T03:42:04.228Z,313.83
2022-08-01T03:44:34.304Z,109.63
2022-08-01T03:47:05.073Z,672.53
2022-08-01T03:49:34.935Z,15.37
2022-08-01T03:52:05.680Z,17.63
2022-08-01T03:54:36.992Z,17.43
2022-08-01T03:57:05.065Z,14.97
2022-08-01T03:59:34.237Z,21.77
2022-08-01T04:02:01.974Z,17.10
2022-08-01T04:04:31.360Z,14.00
2022-08-01T04:07:04.935Z,16.00
2022-08-01T04:09:33.064Z,27.27
2022-08-01T04:12:01.061Z,17.70
2022-08-01T04:14:39.620Z,19.80
2022-08-01T04:17:07.176Z,20.50
2022-08-01T04:19:36.140Z,14.40
2022-08-01T04:22:04.851Z,17.57
2022-08-01T04:24:34.706Z,17.03
2022-08-01T04:27:02.862Z,16.87
2022-08-01T04:29:32.157Z,12.90
2022-08-01T04:32:01.419Z,15.40
2022-08-01T04:34:31.274Z,19.50
2022-08-01T04:37:01.318Z,16.03
2022-08-01T04:39:31.736Z,19.13
2022-08-01T04:42:00.115Z,16.00
2022-08-01T04:44:32.625Z,14.77
2022-08-01T04:47:01.867Z,15.87
2022-08-01T04:49:31.035Z,15.37
2022-08-01T04:52:01.886Z,20.37
2022-08-01T04:54:30.679Z,16.00
2022-08-01T04:57:00.707Z,18.00
2022-08-01T04:59:43.408Z,16.30
2022-08-01T05:02:12.392Z,17.60
2022-08-01T05:04:40.631Z,18.77
2022-08-01T05:07:09.984Z,16.27
2022-08-01T05:09:37.998Z,21.03
2022-08-01T05:12:07.493Z,18.13
2022-08-01T05:14:35.559Z,19.17
2022-08-01T05:17:04.915Z,15.97
2022-08-01T05:19:33.773Z,17.90
2022-08-01T05:22:02.409Z,16.03
2022-08-01T05:24:31.996Z,19.70
2022-08-01T05:27:00.551Z,15.97
2022-08-01T05:29:28.865Z,25.47
2022-08-01T05:31:56.458Z,17.73
2022-08-01T05:34:24.143Z,16.17
2022-08-01T05:36:55.383Z,16.80
2022-08-01T05:39:25.331Z,15.20
2022-08-01T05:41:54.252Z,19.70
2022-08-01T05:44:22.032Z,23.50
2022-08-01T05:46:49.668Z,15.87
2022-08-01T05:49:17.311Z,13.33
2022-08-01T05:51:45.017Z,18.27
2022-08-01T05:54:12.692Z,12.67
2022-08-01T05:56:40.256Z,18.23
2022-08-01T05:59:09.178Z,20.17
2022-08-01T06:01:36.837Z,13.80
2022-08-01T06:04:04.751Z,15.27
2022-08-01T06:06:32.312Z,16.30
2022-08-01T06:08:59.883Z,110.73
2022-08-01T06:11:27.461Z,130.37
2022-08-01T06:13:55.438Z,407.87
2022-08-01T06:16:24.663Z,350.67
2022-08-01T06:18:56.505Z,345.73
2022-08-01T06:21:24.577Z,153.87
2022-08-01T06:23:52.154Z,156.57
2022-08-01T06:26:20.068Z,151.40
2022-08-01T06:28:47.707Z,117.50
2022-08-01T06:31:16.518Z,171.87
2022-08-01T06:33:45.448Z,14.27
2022-08-01T06:36:13.066Z,671.93
2022-08-01T06:38:40.692Z,672.83
2022-08-01T06:41:08.276Z,671.93
2022-08-01T06:43:35.878Z,673.17
2022-08-01T06:46:03.469Z,94.23
2022-08-01T06:48:31.064Z,189.27
2022-08-01T06:51:13.959Z,243.77
2022-08-01T06:53:41.659Z,22.40
2022-08-01T06:56:11.480Z,111.93
2022-08-01T06:58:39.556Z,106.00
2022-08-01T07:01:08.130Z,102.33
2022-08-01T07:03:52.730Z,19.13
2022-08-01T07:06:24.599Z,118.73
2022-08-01T07:08:52.385Z,257.70
2022-08-01T07:11:20.346Z,17.47
2022-08-01T07:13:47.923Z,672.17
2022-08-01T07:16:15.909Z,112.13
2022-08-01T07:18:43.784Z,132.37
2022-08-01T07:21:16.645Z,17.73
2022-08-01T07:24:00.562Z,117.30
2022-08-01T07:26:28.575Z,999.90
2022-08-01T07:28:56.254Z,123.00
2022-08-01T07:31:23.939Z,674.50
2022-08-01T07:33:51.699Z,129.00
2022-08-01T07:36:19.483Z,140.30
2022-08-01T07:38:47.515Z,15.97
2022-08-01T07:41:16.772Z,999.90
2022-08-01T07:43:54.379Z,141.00
2022-08-01T07:46:24.017Z,369.77
2022-08-01T07:48:51.616Z,338.73
2022-08-01T07:51:19.227Z,470.43
2022-08-01T07:53:46.852Z,153.97
2022-08-01T07:56:15.812Z,151.77
2022-08-01T07:58:43.380Z,249.97
2022-08-01T08:01:11.016Z,149.40
2022-08-01T08:03:38.603Z,20.37
2022-08-01T08:06:06.619Z,166.27
2022-08-01T08:08:35.521Z,169.27
2022-08-01T08:11:03.393Z,507.53
2022-08-01T08:13:32.386Z,183.30
2022-08-01T08:16:00.667Z,184.03
2022-08-01T08:18:28.367Z,176.13
2022-08-01T08:20:55.962Z,181.30
2022-08-01T08:23:43.538Z,545.57
2022-08-01T08:26:11.691Z,63.47
2022-08-01T08:28:40.991Z,277.27
2022-08-01T08:31:50.830Z,579.07
2022-08-01T08:33:56.615Z,190.37
2022-08-01T08:36:31.230Z,195.57
2022-08-01T08:39:01.248Z,197.93
2022-08-01T08:41:38.154Z,570.83
2022-08-01T08:44:10.575Z,529.87
2022-08-01T08:46:43.425Z,570.83
2022-08-01T08:49:11.800Z,538.40
2022-08-01T08:51:40.853Z,192.63
2022-08-01T08:54:09.010Z,197.07
2022-08-01T08:56:37.079Z,675.27
2022-08-01T08:59:05.186Z,675.33
2022-08-01T09:01:35.925Z,14.37
2022-08-01T09:04:04.080Z,181.93
2022-08-01T09:06:32.142Z,195.17
2022-08-01T09:09:00.405Z,178.37
2022-08-01T09:11:28.030Z,999.90
2022-08-01T09:14:07.779Z,187.50
2022-08-01T09:16:38.563Z,188.20
2022-08-01T09:19:16.420Z,189.77
2022-08-01T09:22:01.555Z,999.90
2022-08-01T09:24:30.923Z,182.27
2022-08-01T09:26:59.234Z,210.53
2022-08-01T09:29:37.377Z,621.67
2022-08-01T09:32:13.907Z,528.00
2022-08-01T09:34:44.022Z,591.20
2022-08-01T09:37:15.104Z,195.33
2022-08-01T09:39:44.191Z,199.77
2022-08-01T09:42:28.748Z,17.57
2022-08-01T09:44:57.154Z,190.00
2022-08-01T09:47:39.250Z,612.33
2022-08-01T09:50:11.062Z,584.87
2022-08-01T09:52:40.921Z,651.03
2022-08-01T09:55:09.804Z,619.10
2022-08-01T09:57:37.378Z,687.53
2022-08-01T10:00:06.764Z,199.57
2022-08-01T10:02:38.332Z,620.53
2022-08-01T10:05:09.102Z,193.97
2022-08-01T10:07:43.831Z,188.07
2022-08-01T10:10:13.076Z,179.23
2022-08-01T10:12:45.246Z,46.27
2022-08-01T10:15:14.292Z,186.90
2022-08-01T10:17:51.241Z,589.47
2022-08-01T10:20:30.474Z,16.97
2022-08-01T10:23:01.902Z,201.63
2022-08-01T10:25:42.445Z,172.70
2022-08-01T10:28:18.102Z,581.73
2022-08-01T10:30:49.708Z,201.47
2022-08-01T10:33:49.933Z,527.33
2022-08-01T10:36:08.303Z,567.90
2022-08-01T10:38:37.307Z,625.80
2022-08-01T10:41:06.434Z,642.23
2022-08-01T10:43:36.410Z,626.47
2022-08-01T10:46:04.602Z,224.87
2022-08-01T10:48:38.261Z,694.67
2022-08-01T10:51:17.516Z,210.63
2022-08-01T10:53:50.036Z,220.03
2022-08-01T10:56:18.172Z,633.57
2022-08-01T10:58:48.726Z,653.77
2022-08-01T11:01:21.161Z,193.57
2022-08-01T11:04:04.905Z,209.17
2022-08-01T11:06:42.957Z,35.70
2022-08-01T11:09:24.686Z,206.73
2022-08-01T11:12:08.882Z,599.63
2022-08-01T11:15:14.918Z,708.80
2022-08-01T11:17:48.331Z,249.17
2022-08-01T11:20:19.037Z,157.33
2022-08-01T11:23:29.709Z,648.43
2022-08-01T11:26:29.209Z,206.23
2022-08-01T11:29:21.195Z,677.83
2022-08-01T11:31:50.485Z,321.23
2022-08-01T11:34:18.207Z,207.60
2022-08-01T11:37:03.263Z,727.87
2022-08-01T11:39:34.349Z,164.70
2022-08-01T11:42:20.658Z,743.50
2022-08-01T11:44:52.129Z,227.97
2022-08-01T11:47:21.447Z,780.63
2022-08-01T11:49:56.111Z,751.37
2022-08-01T11:52:30.147Z,688.67
2022-08-01T11:54:59.618Z,162.50
2022-08-01T11:57:33.959Z,753.13
2022-08-01T12:00:08.790Z,737.70
2022-08-01T12:02:36.854Z,655.00
2022-08-01T12:05:08.387Z,213.63
2022-08-01T12:07:38.259Z,27.20
2022-08-01T12:10:07.886Z,636.80
2022-08-01T12:12:36.983Z,677.87
2022-08-01T12:15:06.184Z,632.10
2022-08-01T12:17:39.398Z,770.33
2022-08-01T12:20:09.337Z,166.20
2022-08-01T12:22:39.059Z,888.10
2022-08-01T12:25:10.679Z,856.70
2022-08-01T12:27:39.210Z,872.07
2022-08-01T12:30:09.220Z,999.90
2022-08-01T12:32:38.894Z,847.70
2022-08-01T12:35:09.665Z,346.13
2022-08-01T12:37:39.159Z,276.43
2022-08-01T12:40:15.325Z,488.03
2022-08-01T12:42:43.866Z,905.57
2022-08-01T12:45:14.592Z,959.07
2022-08-01T12:47:42.705Z,210.90
2022-08-01T12:50:14.032Z,316.97
2022-08-01T12:52:43.587Z,220.43
2022-08-01T12:55:14.102Z,197.43
2022-08-01T12:57:43.124Z,87.93
2022-08-01T13:00:16.779Z,855.33
2022-08-01T13:02:45.217Z,200.93
2022-08-01T13:05:13.165Z,826.43
2022-08-01T13:07:47.586Z,201.33
2022-08-01T13:10:17.264Z,279.00
2022-08-01T13:12:54.079Z,854.37
2022-08-01T13:15:28.116Z,220.93
2022-08-01T13:17:56.284Z,299.40
2022-08-01T13:20:25.542Z,111.27
2022-08-01T13:22:54.651Z,355.07
2022-08-01T13:25:24.498Z,406.67
2022-08-01T13:28:18.218Z,114.53
2022-08-01T13:30:57.091Z,293.43
2022-08-01T13:33:25.611Z,135.30
2022-08-01T13:35:54.340Z,102.43
2022-08-01T13:38:43.903Z,354.90
2022-08-01T13:41:11.972Z,95.13
2022-08-01T13:43:58.356Z,412.73
2022-08-01T13:46:27.052Z,139.63
2022-08-01T13:48:57.361Z,143.47
2022-08-01T13:51:26.132Z,571.10
2022-08-01T13:53:55.056Z,631.83
2022-08-01T13:56:23.832Z,620.50
2022-08-01T13:58:51.448Z,596.73
2022-08-01T14:01:19.099Z,584.60
2022-08-01T14:03:47.245Z,572.67
2022-08-01T14:06:16.852Z,641.50
2022-08-01T14:08:45.965Z,605.27
2022-08-01T14:11:15.231Z,740.23
2022-08-01T14:13:45.182Z,30.30
2022-08-01T14:16:14.596Z,659.00
2022-08-01T14:18:44.292Z,675.17
2022-08-01T14:21:12.176Z,675.93
2022-08-01T14:23:39.947Z,624.90
2022-08-01T14:26:12.130Z,603.67
2022-08-01T14:28:41.515Z,603.03
2022-08-01T14:31:09.327Z,599.33
2022-08-01T14:33:37.290Z,186.00
2022-08-01T14:36:30.848Z,563.97
2022-08-01T14:38:53.074Z,305.33
2022-08-01T14:41:20.658Z,142.03
2022-08-01T14:43:49.617Z,469.23
2022-08-01T14:46:17.558Z,496.80
2022-08-01T14:48:45.162Z,21.73
2022-08-01T14:51:12.785Z,516.50
2022-08-01T14:53:41.563Z,352.17
2022-08-01T14:56:14.874Z,311.30
2022-08-01T14:58:42.505Z,75.33
2022-08-01T15:01:11.528Z,477.63
2022-08-01T15:03:39.246Z,19.97
2022-08-01T15:06:10.455Z,137.83
2022-08-01T15:08:38.080Z,390.57
2022-08-01T15:11:05.686Z,380.53
2022-08-01T15:13:33.461Z,999.90
2022-08-01T15:16:01.401Z,22.80
2022-08-01T15:18:30.563Z,115.57
2022-08-01T15:21:01.926Z,114.13
2022-08-01T15:23:29.611Z,118.83
2022-08-01T15:25:57.220Z,123.13
2022-08-01T15:28:25.581Z,339.30
2022-08-01T15:30:53.184Z,371.60
2022-08-01T15:33:22.488Z,999.90
2022-08-01T15:35:52.860Z,673.30
2022-08-01T15:38:22.371Z,118.90
2022-08-01T15:40:49.988Z,328.43
2022-08-01T15:43:17.607Z,158.43
2022-08-01T15:45:48.179Z,164.97
2022-08-01T15:48:16.600Z,346.87
2022-08-01T15:50:44.273Z,456.53
2022-08-01T15:53:13.268Z,174.07
2022-08-01T15:55:40.888Z,171.63
2022-08-01T15:58:11.644Z,264.87
2022-08-01T16:00:40.197Z,194.40
2022-08-01T16:03:08.460Z,189.33
2022-08-01T16:05:42.923Z,180.33
2022-08-01T16:08:13.232Z,183.27
2022-08-01T16:10:41.342Z,122.63
2022-08-01T16:13:09.362Z,165.80
2022-08-01T16:15:38.182Z,535.33
2022-08-01T16:18:06.418Z,532.77
2022-08-01T16:20:34.125Z,173.90
2022-08-01T16:23:01.782Z,503.23
2022-08-01T16:25:30.757Z,353.27
2022-08-01T16:27:58.371Z,53.97
2022-08-01T16:30:26.163Z,351.63
2022-08-01T16:32:56.661Z,99.80
2022-08-01T16:35:36.395Z,255.80
2022-08-01T16:38:04.723Z,280.67
2022-08-01T16:40:34.895Z,35.40
2022-08-01T16:43:14.383Z,302.10
2022-08-01T16:45:42.876Z,297.63
2022-08-01T16:48:12.059Z,285.57
2022-08-01T16:50:40.421Z,179.37
2022-08-01T16:53:08.203Z,675.80
2022-08-01T16:55:49.457Z,111.67
2022-08-01T16:58:18.860Z,170.53
2022-08-01T17:00:56.752Z,205.03
2022-08-01T17:03:46.891Z,999.90
2022-08-01T17:06:12.798Z,86.87
2022-08-01T17:08:46.137Z,382.20
2022-08-01T17:11:16.219Z,352.07
2022-08-01T17:13:44.021Z,350.47
2022-08-01T17:16:12.192Z,262.97
2022-08-01T17:18:39.864Z,73.33
2022-08-01T17:21:07.739Z,266.13
2022-08-01T17:23:35.780Z,264.67
2022-08-01T17:26:03.396Z,313.47
2022-08-01T17:28:32.633Z,256.27
2022-08-01T17:31:00.275Z,302.37
2022-08-01T17:33:45.514Z,264.07
2022-08-01T17:36:15.227Z,564.87
2022-08-01T17:38:42.915Z,320.57
2022-08-01T17:41:10.545Z,104.47
2022-08-01T17:43:39.540Z,122.57
2022-08-01T17:46:07.147Z,167.37
2022-08-01T17:48:34.748Z,209.73
2022-08-01T17:51:02.418Z,179.13
2022-08-01T17:53:30.563Z,165.23
2022-08-01T17:56:00.617Z,146.50
2022-08-01T17:58:49.845Z,89.83
2022-08-01T18:01:19.979Z,61.40
2022-08-01T18:03:47.933Z,81.03
2022-08-01T18:06:17.382Z,49.90
2022-08-01T18:08:46.731Z,49.87
2022-08-01T18:11:15.289Z,50.63
2022-08-01T18:13:43.268Z,48.60
2022-08-01T18:16:12.894Z,55.00
2022-08-01T18:18:43.407Z,54.83
2022-08-01T18:21:12.525Z,95.43
2022-08-01T18:23:40.190Z,141.67
2022-08-01T18:26:12.038Z,136.90
2022-08-01T18:28:41.982Z,191.70
2022-08-01T18:31:16.648Z,137.00
2022-08-01T18:33:46.230Z,138.63
2022-08-01T18:36:32.205Z,48.33
2022-08-01T18:39:04.631Z,49.90
2022-08-01T18:41:33.298Z,74.07
2022-08-01T18:44:05.568Z,77.33
2022-08-01T18:46:36.127Z,999.90
2022-08-01T18:49:06.131Z,74.73
2022-08-01T18:51:33.854Z,79.57
2022-08-01T18:54:01.488Z,207.33
2022-08-01T18:56:29.084Z,209.20
2022-08-01T18:58:56.809Z,20.77
2022-08-01T19:01:24.962Z,80.70
2022-08-01T19:03:52.613Z,208.03
2022-08-01T19:06:21.551Z,230.27
2022-08-01T19:08:49.174Z,19.73
2022-08-01T19:11:16.766Z,82.40
2022-08-01T19:13:44.377Z,225.50
2022-08-01T19:16:12.969Z,151.27
2022-08-01T19:18:41.058Z,139.87
2022-08-01T19:21:08.766Z,412.60
2022-08-01T19:23:55.016Z,470.63
2022-08-01T19:26:25.804Z,136.40
2022-08-01T19:28:57.117Z,999.90
2022-08-01T19:31:27.556Z,999.90
2022-08-01T19:33:55.928Z,805.90
2022-08-01T19:36:24.591Z,800.67
2022-08-01T19:38:54.456Z,983.50
2022-08-01T19:41:23.031Z,797.30
2022-08-01T19:43:51.680Z,812.37
2022-08-01T19:46:19.717Z,274.80
2022-08-01T19:48:53.692Z,999.90
2022-08-01T19:51:33.223Z,792.53
2022-08-01T19:54:05.340Z,478.20
2022-08-01T19:56:39.612Z,238.07
2022-08-01T19:59:08.850Z,276.07
2022-08-01T20:01:37.514Z,291.57
2022-08-01T20:04:05.549Z,276.87
2022-08-01T20:06:34.787Z,999.90
2022-08-01T20:09:04.687Z,999.90
2022-08-01T20:11:32.686Z,797.40
2022-08-01T20:14:00.988Z,794.47
2022-08-01T20:16:29.650Z,274.77
2022-08-01T20:18:57.448Z,497.20
2022-08-01T20:21:27.104Z,800.47
2022-08-01T20:24:02.896Z,999.90
2022-08-01T20:26:32.740Z,999.90
2022-08-01T20:29:01.600Z,999.90
2022-08-01T20:31:42.758Z,999.90
2022-08-01T20:34:15.503Z,999.90
2022-08-01T20:36:54.531Z,806.00
2022-08-01T20:39:25.239Z,273.73
2022-08-01T20:41:59.922Z,324.40
2022-08-01T20:44:31.394Z,314.97
2022-08-01T20:47:00.037Z,924.63
2022-08-01T20:49:28.174Z,999.90
2022-08-01T20:51:56.509Z,666.93
2022-08-01T20:54:24.120Z,999.90
2022-08-01T20:56:58.875Z,999.90
2022-08-01T20:59:54.966Z,999.90
2022-08-01T21:02:31.755Z,999.90
2022-08-01T21:05:05.286Z,999.90
2022-08-01T21:07:34.351Z,987.20
2022-08-01T21:10:06.984Z,930.80
2022-08-01T21:12:43.631Z,999.90
2022-08-01T21:15:15.205Z,999.90
2022-08-01T21:17:46.403Z,999.90
2022-08-01T21:20:15.500Z,999.90
2022-08-01T21:22:51.540Z,999.90
2022-08-01T21:25:21.902Z,988.20
2022-08-01T21:27:52.858Z,981.10
2022-08-01T21:30:20.720Z,945.70
2022-08-01T21:32:48.700Z,804.17
2022-08-01T21:35:18.684Z,905.43
2022-08-01T21:37:52.675Z,861.70
2022-08-01T21:40:21.785Z,821.73
2022-08-01T21:42:51.852Z,854.27
2022-08-01T21:45:21.018Z,775.20
2022-08-01T21:47:49.968Z,223.23
2022-08-01T21:50:17.640Z,703.07
2022-08-01T21:52:49.667Z,999.90
2022-08-01T21:55:32.176Z,823.77
2022-08-01T21:58:14.596Z,508.17
2022-08-01T22:00:47.352Z,999.90
2022-08-01T22:03:23.546Z,618.70
2022-08-01T22:05:53.095Z,233.27
2022-08-01T22:08:25.661Z,999.90
2022-08-01T22:10:58.669Z,999.90
2022-08-01T22:13:27.883Z,999.90
2022-08-01T22:15:57.487Z,999.90
2022-08-01T22:18:27.647Z,999.90
2022-08-01T22:20:56.527Z,999.90
2022-08-01T22:23:24.358Z,999.90
2022-08-01T22:25:53.502Z,999.90
2022-08-01T22:28:21.808Z,999.90
2022-08-01T22:30:52.676Z,999.90
2022-08-01T22:33:20.660Z,999.90
2022-08-01T22:35:50.164Z,999.90
2022-08-01T22:38:19.198Z,999.90
2022-08-01T22:40:50.012Z,719.93
2022-08-01T22:43:26.077Z,999.90
2022-08-01T22:46:07.396Z,999.90
2022-08-01T22:48:40.230Z,999.90
2022-08-01T22:51:11.275Z,999.90
2022-08-01T22:53:44.033Z,999.90
2022-08-01T22:56:11.829Z,999.90
2022-08-01T22:58:41.135Z,999.90
2022-08-01T23:01:13.052Z,999.90
2022-08-01T23:03:51.480Z,999.90
2022-08-01T23:06:23.971Z,999.90
2022-08-01T23:08:51.884Z,999.90
2022-08-01T23:11:21.059Z,999.90
2022-08-01T23:13:48.811Z,999.90
2022-08-01T23:16:18.759Z,999.90
2022-08-01T23:18:46.523Z,999.90
2022-08-01T23:21:14.399Z,999.90
2022-08-01T23:23:42.516Z,999.90
2022-08-01T23:26:10.504Z,999.90
2022-08-01T23:28:40.270Z,999.90
2022-08-01T23:31:07.998Z,999.90
2022-08-01T23:33:36.955Z,999.90
2022-08-01T23:36:05.115Z,999.90
2022-08-01T23:38:32.749Z,999.90
2022-08-01T23:41:00.383Z,999.90
2022-08-01T23:43:28.003Z,999.90
2022-08-01T23:46:04.671Z,999.90
2022-08-01T23:48:33.432Z,999.90
2022-08-01T23:51:02.502Z,999.90
2022-08-01T23:53:31.089Z,999.90
2022-08-01T23:56:02.630Z,999.90
2022-08-01T23:58:31.323Z,999.90
